Alcester, South Dakota
Current Conditions -  °F | °C
As of 11:55 PM on Saturday 20 Dec 2014 (Local Time) from KLRJ Reporting Station
Haze Haze  
Wind Chill: 23°   Ceiling: 300
Heat Index: 32°   Visibility: 2mi
Dew Point: 32°   Wind: 12mph
Humidity: 100%   Direction: 180°S
Pressure: 30"   Gusts: NA
Location:  43.02°N, 96.63°W
Report Text: KLRJ 210555Z AUTO 18010KT 2SM BR OVC003 00/00 A3000 RMK AO2
Loading
Personal Weather Stations






























Interactive Weather Map New forecast layout! Learn more

10-Day Weather Forecast

Advertisements
Track Severe Weather on mobile